Map

Track Data

SID SEASON NUMBER BASIN SUBBASIN NAME ISO_TIME NATURE LAT LON WMO_WIND WMO_PRES WMO_AGENCY TRACK_TYPE DIST2LAND LANDFALL IFLAG USA_AGENCY USA_ATCF_ID USA_LAT USA_LON USA_RECORD USA_STATUS USA_WIND USA_PRES USA_SSHS USA_R34_NE USA_R34_SE USA_R34_SW USA_R34_NW USA_R50_NE USA_R50_SE USA_R50_SW USA_R50_NW USA_R64_NE USA_R64_SE USA_R64_SW USA_R64_NW USA_POCI USA_ROCI USA_RMW USA_EYE TOKYO_LAT TOKYO_LON TOKYO_GRADE TOKYO_WIND TOKYO_PRES TOKYO_R50_DIR TOKYO_R50_LONG TOKYO_R50_SHORT TOKYO_R30_DIR TOKYO_R30_LONG TOKYO_R30_SHORT TOKYO_LAND CMA_LAT CMA_LON CMA_CAT CMA_WIND CMA_PRES HKO_LAT HKO_LON HKO_CAT HKO_WIND HKO_PRES NEWDELHI_LAT NEWDELHI_LON NEWDELHI_GRADE NEWDELHI_WIND NEWDELHI_PRES NEWDELHI_CI NEWDELHI_DP NEWDELHI_POCI REUNION_LAT REUNION_LON REUNION_TYPE REUNION_WIND REUNION_PRES REUNION_TNUM REUNION_CI REUNION_RMW REUNION_R34_NE REUNION_R34_SE REUNION_R34_SW REUNION_R34_NW REUNION_R50_NE REUNION_R50_SE REUNION_R50_SW REUNION_R50_NW REUNION_R64_NE REUNION_R64_SE REUNION_R64_SW REUNION_R64_NW BOM_LAT BOM_LON BOM_TYPE BOM_WIND BOM_PRES BOM_TNUM BOM_CI BOM_RMW BOM_R34_NE BOM_R34_SE BOM_R34_SW BOM_R34_NW BOM_R50_NE BOM_R50_SE BOM_R50_SW BOM_R50_NW BOM_R64_NE BOM_R64_SE BOM_R64_SW BOM_R64_NW BOM_ROCI BOM_POCI BOM_EYE BOM_POS_METHOD BOM_PRES_METHOD NADI_LAT NADI_LON NADI_CAT NADI_WIND NADI_PRES WELLINGTON_LAT WELLINGTON_LON WELLINGTON_WIND WELLINGTON_PRES DS824_LAT DS824_LON DS824_STAGE DS824_WIND DS824_PRES TD9636_LAT TD9636_LON TD9636_STAGE TD9636_WIND TD9636_PRES TD9635_LAT TD9635_LON TD9635_WIND TD9635_PRES TD9635_ROCI NEUMANN_LAT NEUMANN_LON NEUMANN_CLASS NEUMANN_WIND NEUMANN_PRES MLC_LAT MLC_LON MLC_CLASS MLC_WIND MLC_PRES USA_GUST BOM_GUST BOM_GUST_PER REUNION_GUST REUNION_GUST_PER USA_SEAHGT USA_SEARAD_NE USA_SEARAD_SE USA_SEARAD_SW USA_SEARAD_NW STORM_SPEED STORM_DIR
1892246N25133 1892 37 WP MM NOT_NAMED 1892-09-01 16:00:00 NR 24.5000 132.600 main 749 749 __________O___ -1 24.5000 132.600 7 1 302
1892246N25133 1892 37 WP MM NOT_NAMED 1892-09-01 18:00:00 NR 24.5300 132.559 main 749 736 __________P___ -1 24.5300 132.559 7 2 306
1892246N25133 1892 37 WP MM NOT_NAMED 1892-09-01 21:00:00 NR 24.5763 132.488 main 736 733 __________P___ -1 24.5763 132.488 7 2 302
1892246N25133 1892 37 WP MM NOT_NAMED 1892-09-02 00:00:00 NR 24.6258 132.393 main 733 720 __________P___ -1 24.6258 132.393 7 2 296
1892246N25133 1892 37 WP MM NOT_NAMED 1892-09-02 03:00:00 NR 24.6804 132.257 main 720 718 __________P___ -1 24.6804 132.257 7 3 293
1892246N25133 1892 37 WP MM NOT_NAMED 1892-09-02 04:00:00 NR 24.7000 132.200 main 718 716 __________O___ -1 24.7000 132.200 7 4 290
1892246N25133 1892 37 WP MM NOT_NAMED 1892-09-02 06:00:00 NR 24.7418 132.068 main 716 700 __________P___ -1 24.7418 132.068 7 4 288
1892246N25133 1892 37 WP MM NOT_NAMED 1892-09-02 09:00:00 NR 24.8106 131.831 main 700 686 __________P___ -1 24.8106 131.831 7 5 288
1892246N25133 1892 37 WP MM NOT_NAMED 1892-09-02 12:00:00 NR 24.8868 131.566 main 686 672 __________P___ -1 24.8868 131.566 7 5 288
1892246N25133 1892 37 WP MM NOT_NAMED 1892-09-02 15:00:00 NR 24.9704 131.291 main 672 671 __________P___ -1 24.9704 131.291 7 5 289
1892246N25133 1892 37 WP MM NOT_NAMED 1892-09-02 16:00:00 NR 25.0000 131.200 main 671 659 __________O___ -1 25.0000 131.200 7 5 292
1892246N25133 1892 37 WP MM NOT_NAMED 1892-09-02 18:00:00 NR 25.0661 131.033 main 659 647 __________P___ -1 25.0661 131.033 7 5 294
1892246N25133 1892 37 WP MM NOT_NAMED 1892-09-02 21:00:00 NR 25.1718 130.783 main 647 636 __________P___ -1 25.1718 130.783 7 5 295
1892246N25133 1892 37 WP MM NOT_NAMED 1892-09-03 00:00:00 NR 25.2769 130.533 main 636 626 __________P___ -1 25.2769 130.533 7 5 294
1892246N25133 1892 37 WP MM NOT_NAMED 1892-09-03 03:00:00 NR 25.3721 130.283 main 626 626 __________P___ -1 25.3721 130.283 7 5 292
1892246N25133 1892 37 WP MM NOT_NAMED 1892-09-03 04:00:00 NR 25.4000 130.200 main 627 627 __________O___ -1 25.4000 130.200 7 5 288
1892246N25133 1892 37 WP MM NOT_NAMED 1892-09-03 06:00:00 NR 25.4447 130.028 main 628 617 __________P___ -1 25.4447 130.028 7 5 284
1892246N25133 1892 37 WP MM NOT_NAMED 1892-09-03 09:00:00 NR 25.4992 129.770 main 620 620 __________P___ -1 25.4992 129.770 7 5 282
1892246N25133 1892 37 WP MM NOT_NAMED 1892-09-03 12:00:00 NR 25.5442 129.517 main 625 614 __________P___ -1 25.5442 129.517 7 5 281
1892246N25133 1892 37 WP MM NOT_NAMED 1892-09-03 15:00:00 NR 25.5858 129.277 main 618 618 __________P___ -1 25.5858 129.277 7 4 281
1892246N25133 1892 37 WP MM NOT_NAMED 1892-09-03 16:00:00 NR 25.6000 129.200 main 620 620 __________O___ -1 25.6000 129.200 7 4 284
1892246N25133 1892 37 WP MM NOT_NAMED 1892-09-03 18:00:00 NR 25.6357 129.063 main 622 614 __________P___ -1 25.6357 129.063 7 4 287
1892246N25133 1892 37 WP MM NOT_NAMED 1892-09-03 21:00:00 NR 25.6895 128.871 main 617 617 __________P___ -1 25.6895 128.871 7 4 287
1892246N25133 1892 37 WP MM NOT_NAMED 1892-09-04 00:00:00 NR 25.7408 128.679 main 623 615 __________P___ -1 25.7408 128.679 7 4 285
1892246N25133 1892 37 WP MM NOT_NAMED 1892-09-04 03:00:00 NR 25.7866 128.474 main 618 618 __________P___ -1 25.7866 128.474 7 4 283
1892246N25133 1892 37 WP MM NOT_NAMED 1892-09-04 04:00:00 NR 25.8000 128.400 main 622 622 __________O___ -1 25.8000 128.400 7 4 280
1892246N25133 1892 37 WP MM NOT_NAMED 1892-09-04 06:00:00 NR 25.8223 128.242 main 628 608 __________P___ -1 25.8223 128.242 7 5 278
1892246N25133 1892 37 WP MM NOT_NAMED 1892-09-04 09:00:00 NR 25.8494 127.985 main 608 580 __________P___ -1 25.8494 127.985 7 5 276
1892246N25133 1892 37 WP MM NOT_NAMED 1892-09-04 12:00:00 NR 25.8718 127.707 main 580 550 __________P___ -1 25.8718 127.707 7 5 275
1892246N25133 1892 37 WP MM NOT_NAMED 1892-09-04 15:00:00 NR 25.8928 127.405 main 550 541 __________P___ -1 25.8928 127.405 7 6 274
1892246N25133 1892 37 WP MM NOT_NAMED 1892-09-04 16:00:00 NR 25.9000 127.300 main 541 521 __________O___ -1 25.9000 127.300 7 6 276
1892246N25133 1892 37 WP MM NOT_NAMED 1892-09-04 18:00:00 NR 25.9221 127.073 main 521 484 __________P___ -1 25.9221 127.073 7 6 276
1892246N25133 1892 37 WP MM NOT_NAMED 1892-09-04 21:00:00 NR 25.9552 126.714 main 484 455 __________P___ -1 25.9552 126.714 7 7 275
1892246N25133 1892 37 WP MM NOT_NAMED 1892-09-05 00:00:00 NR 25.9828 126.352 main 455 416 __________P___ -1 25.9828 126.352 7 6 274
1892246N25133 1892 37 WP MM NOT_NAMED 1892-09-05 03:00:00 NR 25.9985 126.007 main 416 406 __________P___ -1 25.9985 126.007 7 6 272
1892246N25133 1892 37 WP MM NOT_NAMED 1892-09-05 04:00:00 NR 26.0000 125.900 main 406 387 __________O___ -1 26.0000 125.900 3 5 271
1892246N25133 1892 37 WP MM NOT_NAMED 1892-09-05 06:00:00 NR 26.0021 125.724 main 387 368 __________P___ -1 26.0021 125.724 3 4 269
1892246N25133 1892 37 WP MM NOT_NAMED 1892-09-05 09:00:00 NR 25.9932 125.485 main 368 349 __________P___ -1 25.9932 125.485 3 4 265
1892246N25133 1892 37 WP MM NOT_NAMED 1892-09-05 12:00:00 NR 25.9670 125.251 main 349 317 __________P___ -1 25.9670 125.251 3 4 261
1892246N25133 1892 37 WP MM NOT_NAMED 1892-09-05 15:00:00 NR 25.9206 124.995 main 317 307 __________P___ -1 25.9206 124.995 3 5 258
1892246N25133 1892 37 WP MM NOT_NAMED 1892-09-05 16:00:00 NR 25.9000 124.900 main 307 288 __________O___ -1 25.9000 124.900 4 6 255
1892246N25133 1892 37 WP MM NOT_NAMED 1892-09-05 18:00:00 NR 25.8501 124.697 main 288 256 __________P___ -1 25.8501 124.697 4 6 253
1892246N25133 1892 37 WP MM NOT_NAMED 1892-09-05 21:00:00 NR 25.7565 124.361 main 256 211 __________P___ -1 25.7565 124.361 4 7 253
1892246N25133 1892 37 WP MM NOT_NAMED 1892-09-06 00:00:00 NR 25.6488 123.982 main 211 170 __________P___ -1 25.6488 123.982 4 8 253
1892246N25133 1892 37 WP MM NOT_NAMED 1892-09-06 03:00:00 NR 25.5367 123.555 main 170 151 __________P___ -1 25.5367 123.555 4 8 254
1892246N25133 1892 37 WP MM NOT_NAMED 1892-09-06 04:00:00 NR 25.5000 123.400 main 151 119 __________O___ -1 25.5000 123.400 4 9 259
1892246N25133 1892 37 WP MM NOT_NAMED 1892-09-06 06:00:00 NR 25.4494 123.066 main 119 67 __________P___ -1 25.4494 123.066 4 10 261
1892246N25133 1892 37 WP MM NOT_NAMED 1892-09-06 09:00:00 NR 25.3737 122.520 main 67 30 __________P___ -1 25.3737 122.520 4 10 261
1892246N25133 1892 37 WP MM NOT_NAMED 1892-09-06 12:00:00 NR 25.2813 121.949 main 30 0 __________P___ -1 25.2813 121.949 4 11 258
1892246N25133 1892 37 WP MM NOT_NAMED 1892-09-06 15:00:00 NR 25.1536 121.382 main 0 0 __________P___ -1 25.1536 121.382 4 11 255
1892246N25133 1892 37 WP MM NOT_NAMED 1892-09-06 16:00:00 NR 25.1000 121.200 main 0 0 __________O___ -1 25.1000 121.200 4 10 249
1892246N25133 1892 37 WP MM NOT_NAMED 1892-09-06 18:00:00 NR 24.9746 120.877 main 10 10 __________P___ -1 24.9746 120.877 4 10 244
1892246N25133 1892 37 WP MM NOT_NAMED 1892-09-06 21:00:00 NR 24.7494 120.412 main 32 32 __________P___ -1 24.7494 120.412 4 10 240
1892246N25133 1892 37 WP MM NOT_NAMED 1892-09-07 00:00:00 NR 24.4881 119.949 main 67 60 __________P___ -1 24.4881 119.949 4 10 237
1892246N25133 1892 37 WP MM NOT_NAMED 1892-09-07 03:00:00 NR 24.2003 119.468 main 84 82 __________P___ -1 24.2003 119.468 4 11 237
1892246N25133 1892 37 WP MM NOT_NAMED 1892-09-07 04:00:00 NR 24.1000 119.300 main 82 69 __________O___ -1 24.1000 119.300 4 11 239
1892246N25133 1892 37 WP MM NOT_NAMED 1892-09-07 06:00:00 NR 23.9057 118.937 main 73 67 __________P___ -1 23.9057 118.937 4 12 239
1892246N25133 1892 37 WP MM NOT_NAMED 1892-09-07 09:00:00 NR 23.5954 118.367 main 67 45 __________P___ -1 23.5954 118.367 4 12 239
1892246N25133 1892 37 WP MM NOT_NAMED 1892-09-07 12:00:00 NR 23.2653 117.781 main 49 54 __________P___ -1 23.2653 117.781 4 13 238
1892246N25133 1892 37 WP MM NOT_NAMED 1892-09-07 15:00:00 NR 22.9186 117.193 main 60 52 __________P___ -1 22.9186 117.193 4 13 237
1892246N25133 1892 37 WP MM NOT_NAMED 1892-09-07 16:00:00 NR 22.8000 117.000 main 52 35 __________O___ -1 22.8000 117.000 4 14 236
1892246N25133 1892 37 WP MM NOT_NAMED 1892-09-07 18:00:00 NR 22.5355 116.588 main 45 44 __________P___ -1 22.5355 116.588 4 14 235
1892246N25133 1892 37 WP MM NOT_NAMED 1892-09-07 21:00:00 NR 22.1256 115.975 main 70 67 __________P___ -1 22.1256 115.975 4 14 234
1892246N25133 1892 37 WP MM NOT_NAMED 1892-09-08 00:00:00 NR 21.7326 115.408 main 103 98 __________P___ -1 21.7326 115.408 4 12 233
1892246N25133 1892 37 WP MM NOT_NAMED 1892-09-08 03:00:00 NR 21.3942 114.931 main 118 118 __________P___ -1 21.3942 114.931 4 11 233
1892246N25133 1892 37 WP MM NOT_NAMED 1892-09-08 04:00:00 NR 21.3000 114.800 main 123 119 __________O___ -1 21.3000 114.800 4 8 233
1892246N25133 1892 37 WP MM NOT_NAMED 1892-09-08 06:00:00 NR 21.1613 114.602 main 126 126 __________P___ -1 21.1613 114.602 4 6 233
1892246N25133 1892 37 WP MM NOT_NAMED 1892-09-08 09:00:00 NR 21.0173 114.398 main 145 145 __________P___ -1 21.0173 114.398 4 4 232
1892246N25133 1892 37 WP MM NOT_NAMED 1892-09-08 12:00:00 NR 20.9192 114.262 main 156 156 __________P___ -1 20.9192 114.262 4 3 232
1892246N25133 1892 37 WP MM NOT_NAMED 1892-09-08 15:00:00 NR 20.8325 114.144 main 167 167 __________P___ -1 20.8325 114.144 4 3 232
1892246N25133 1892 37 WP MM NOT_NAMED 1892-09-08 16:00:00 NR 20.8000 114.100 main 167 160 __________O___ -1 20.8000 114.100 4 4 236
1892246N25133 1892 37 WP MM NOT_NAMED 1892-09-08 18:00:00 NR 20.7189 113.965 main 169 163 __________P___ -1 20.7189 113.965 4 5 237
1892246N25133 1892 37 WP MM NOT_NAMED 1892-09-08 21:00:00 NR 20.5911 113.755 main 167 162 __________P___ -1 20.5911 113.755 4 5 235
1892246N25133 1892 37 WP MM NOT_NAMED 1892-09-09 00:00:00 NR 20.4450 113.549 main 175 172 __________P___ -1 20.4450 113.549 4 5 229
1892246N25133 1892 37 WP MM NOT_NAMED 1892-09-09 03:00:00 NR 20.2680 113.358 main 183 181 __________P___ -1 20.2680 113.358 4 5 224
1892246N25133 1892 37 WP MM NOT_NAMED 1892-09-09 04:00:00 NR 20.2000 113.300 main 192 192 __________O___ -1 20.2000 113.300 4 5 215
1892246N25133 1892 37 WP MM NOT_NAMED 1892-09-09 06:00:00 NR 20.0451 113.197 main 210 207 __________P___ -1 20.0451 113.197 4 6 208
1892246N25133 1892 37 WP MM NOT_NAMED 1892-09-09 09:00:00 NR 19.7814 113.061 main 220 199 __________P___ -1 19.7814 113.061 4 6 204
1892246N25133 1892 37 WP MM NOT_NAMED 1892-09-09 12:00:00 NR 19.4937 112.943 main 199 194 __________P___ -1 19.4937 112.943 4 6 200
1892246N25133 1892 37 WP MM NOT_NAMED 1892-09-09 15:00:00 NR 19.1978 112.835 main 194 194 __________P___ -1 19.1978 112.835 4 6 199
1892246N25133 1892 37 WP MM NOT_NAMED 1892-09-09 16:00:00 NR 19.1000 112.800 main 196 190 __________O___ -1 19.1000 112.800 4 6 199
1892246N25133 1892 37 WP MM NOT_NAMED 1892-09-09 18:00:00 NR 18.9062 112.725 main 194 194 __________P___ -1 18.9062 112.725 4 6 200
1892246N25133 1892 37 WP MM NOT_NAMED 1892-09-09 21:00:00 NR 18.6152 112.619 main 201 201 __________P___ -1 18.6152 112.619 4 6 199
1892246N25133 1892 37 WP MM NOT_NAMED 1892-09-10 00:00:00 NR 18.3351 112.520 main 214 214 __________P___ -1 18.3351 112.520 4 6 199
1892246N25133 1892 37 WP MM NOT_NAMED 1892-09-10 03:00:00 NR 18.0783 112.429 main 214 214 __________P___ -1 18.0783 112.429 4 5 199
1892246N25133 1892 37 WP MM NOT_NAMED 1892-09-10 04:00:00 NR 18.0000 112.400 main 219 215 __________O___ -1 18.0000 112.400 4 4 200
1892246N25133 1892 37 WP MM NOT_NAMED 1892-09-10 06:00:00 NR 17.8709 112.350 main 215 215 __________P___ -1 17.8709 112.350 4 4 200
1892246N25133 1892 37 WP MM NOT_NAMED 1892-09-10 09:00:00 NR 17.7029 112.281 main 226 224 __________P___ -1 17.7029 112.281 4 4 202
1892246N25133 1892 37 WP MM NOT_NAMED 1892-09-10 12:00:00 NR 17.5431 112.211 main 231 230 __________P___ -1 17.5431 112.211 4 4 203
1892246N25133 1892 37 WP MM NOT_NAMED 1892-09-10 15:00:00 NR 17.3668 112.131 main 230 230 __________P___ -1 17.3668 112.131 4 4 204
1892246N25133 1892 37 WP MM NOT_NAMED 1892-09-10 16:00:00 NR 17.3000 112.100 main 238 238 __________O___ -1 17.3000 112.100 4 5 204
1892246N25133 1892 37 WP MM NOT_NAMED 1892-09-10 18:00:00 NR 17.1507 112.032 main 238 246 __________P___ -1 17.1507 112.032 4 5 204
1892246N25133 1892 37 WP MM NOT_NAMED 1892-09-10 21:00:00 NR 16.8931 111.914 main 256 256 __________P___ -1 16.8931 111.914 4 6 203
1892246N25133 1892 37 WP MM NOT_NAMED 1892-09-11 00:00:00 NR 16.6063 111.784 main 277 277 __________P___ -1 16.6063 111.784 4 6 204
1892246N25133 1892 37 WP MM NOT_NAMED 1892-09-11 03:00:00 NR 16.3027 111.646 main 289 289 __________P___ -1 16.3027 111.646 4 7 203
1892246N25133 1892 37 WP MM NOT_NAMED 1892-09-11 04:00:00 NR 16.2000 111.600 main 299 __________O___ -1 16.2000 111.600 4 7 203

Digital Typhoon Data and Search

About IBTrACS Database

This database is a web-friendly format of International Best Track Archive for Climate Stewardship (IBTrACS), a global best track data archive curated by NOAA dating back to 1842.

Updated: 2021-12-03